createdAt,value
2023-02-04T00:01:58.164Z,63.58
2023-02-04T00:04:24.781Z,63.25
2023-02-04T00:06:51.348Z,63.50
2023-02-04T00:09:17.864Z,63.61
2023-02-04T00:11:45.651Z,63.62
2023-02-04T00:14:12.292Z,63.37
2023-02-04T00:16:38.937Z,63.68
2023-02-04T00:19:05.635Z,63.67
2023-02-04T00:21:32.309Z,63.72
2023-02-04T00:23:58.847Z,63.51
2023-02-04T00:26:25.468Z,63.75
2023-02-04T00:28:52.049Z,63.49
2023-02-04T00:31:18.735Z,63.79
2023-02-04T00:33:45.359Z,63.57
2023-02-04T00:36:12.045Z,63.77
2023-02-04T00:38:38.642Z,63.61
2023-02-04T00:41:07.095Z,63.59
2023-02-04T00:43:33.752Z,63.78
2023-02-04T00:46:00.610Z,63.84
2023-02-04T00:48:27.247Z,63.82
2023-02-04T00:50:54.359Z,63.57
2023-02-04T00:53:20.958Z,63.51
2023-02-04T00:55:47.705Z,63.68
2023-02-04T00:58:14.336Z,63.75
2023-02-04T01:00:41.067Z,63.98
2023-02-04T01:03:08.100Z,63.61
2023-02-04T01:05:34.754Z,63.90
2023-02-04T01:08:01.284Z,63.76
2023-02-04T01:10:28.488Z,63.89
2023-02-04T01:12:57.001Z,63.81
2023-02-04T01:15:23.699Z,63.93
2023-02-04T01:17:50.370Z,63.73
2023-02-04T01:20:17.137Z,64.18
2023-02-04T01:22:43.679Z,63.84
2023-02-04T01:25:10.424Z,63.96
2023-02-04T01:27:40.537Z,63.81
2023-02-04T01:30:07.410Z,63.75
2023-02-04T01:32:34.138Z,63.71
2023-02-04T01:35:00.913Z,64.12
2023-02-04T01:37:27.470Z,64.13
2023-02-04T01:39:54.097Z,63.88
2023-02-04T01:42:20.632Z,64.03
2023-02-04T01:44:47.293Z,63.83
2023-02-04T01:47:13.917Z,63.84
2023-02-04T01:49:40.565Z,64.14
2023-02-04T01:52:07.287Z,64.25
2023-02-04T01:54:33.984Z,64.07
2023-02-04T01:57:00.651Z,64.23
2023-02-04T01:59:27.477Z,64.00
2023-02-04T02:01:54.428Z,63.92
2023-02-04T02:04:23.094Z,64.17
2023-02-04T02:06:51.321Z,63.85
2023-02-04T02:09:18.001Z,63.92
2023-02-04T02:11:44.535Z,64.22
2023-02-04T02:14:11.505Z,63.98
2023-02-04T02:16:38.201Z,64.15
2023-02-04T02:19:05.457Z,64.06
2023-02-04T02:22:12.036Z,64.02
2023-02-04T02:24:38.717Z,64.06
2023-02-04T02:27:07.219Z,64.20
2023-02-04T02:29:34.075Z,64.21
2023-02-04T02:32:00.639Z,63.98
2023-02-04T02:34:27.488Z,63.91
2023-02-04T02:36:54.099Z,64.23
2023-02-04T02:39:20.776Z,63.98
2023-02-04T02:41:47.298Z,64.22
2023-02-04T02:44:14.107Z,63.87
2023-02-04T02:46:40.640Z,63.92
2023-02-04T02:49:09.234Z,63.89
2023-02-04T02:51:35.837Z,64.13
2023-02-04T02:54:03.135Z,64.11
2023-02-04T02:56:29.705Z,63.91
2023-02-04T02:58:59.357Z,63.95
2023-02-04T03:01:27.307Z,64.00
2023-02-04T03:03:54.419Z,64.22
2023-02-04T03:06:22.398Z,64.22
2023-02-04T03:08:49.939Z,64.22
2023-02-04T03:11:18.272Z,64.22
2023-02-04T03:13:44.961Z,64.13
2023-02-04T03:16:11.724Z,63.96
2023-02-04T03:18:38.290Z,64.02
2023-02-04T03:21:06.728Z,63.84
2023-02-04T03:23:34.039Z,63.84
2023-02-04T03:26:02.607Z,64.19
2023-02-04T03:28:30.361Z,64.11
2023-02-04T03:30:57.167Z,64.08
2023-02-04T03:33:24.415Z,64.25
2023-02-04T03:35:51.587Z,64.15
2023-02-04T03:38:19.966Z,64.26
2023-02-04T03:40:46.790Z,64.22
2023-02-04T03:43:13.384Z,64.17
2023-02-04T03:45:45.607Z,64.26
2023-02-04T03:48:12.767Z,63.88
2023-02-04T03:50:39.321Z,64.22
2023-02-04T03:53:11.556Z,64.23
2023-02-04T03:55:39.440Z,64.23
2023-02-04T03:58:06.031Z,64.15
2023-02-04T04:00:33.069Z,63.92
2023-02-04T04:02:59.942Z,64.09
2023-02-04T04:05:28.001Z,64.24
2023-02-04T04:07:54.514Z,64.15
2023-02-04T04:10:21.165Z,64.19
2023-02-04T04:12:47.738Z,63.87
2023-02-04T04:15:14.435Z,64.19
2023-02-04T04:17:41.031Z,64.11
2023-02-04T04:20:07.923Z,63.91
2023-02-04T04:22:34.455Z,64.24
2023-02-04T04:25:01.140Z,64.22
2023-02-04T04:27:29.268Z,63.81
2023-02-04T04:29:56.187Z,64.17
2023-02-04T04:32:22.795Z,64.16
2023-02-04T04:34:49.427Z,63.88
2023-02-04T04:37:16.242Z,63.98
2023-02-04T04:39:42.888Z,64.17
2023-02-04T04:42:09.816Z,63.95
2023-02-04T04:44:36.432Z,64.01
2023-02-04T04:47:03.371Z,64.27
2023-02-04T04:49:30.024Z,64.23
2023-02-04T04:51:56.621Z,63.89
2023-02-04T04:54:23.317Z,63.90
2023-02-04T04:56:49.895Z,64.23
2023-02-04T04:59:16.465Z,63.86
2023-02-04T05:01:43.069Z,63.83
2023-02-04T05:04:09.754Z,63.93
2023-02-04T05:06:36.300Z,64.16
2023-02-04T05:09:03.036Z,64.07
2023-02-04T05:11:29.646Z,64.14
2023-02-04T05:13:56.461Z,63.92
2023-02-04T05:16:23.054Z,64.13
2023-02-04T05:18:49.761Z,63.85
2023-02-04T05:21:16.312Z,64.25
2023-02-04T05:23:42.976Z,63.82
2023-02-04T05:26:09.655Z,64.28
2023-02-04T05:28:36.274Z,64.26
2023-02-04T05:31:02.901Z,63.92
2023-02-04T05:33:29.563Z,64.27
2023-02-04T05:35:56.107Z,64.05
2023-02-04T05:38:22.760Z,64.30
2023-02-04T05:40:49.291Z,64.01
2023-02-04T05:43:16.019Z,63.99
2023-02-04T05:45:42.666Z,63.99
2023-02-04T05:48:09.344Z,64.03
2023-02-04T05:50:35.849Z,64.31
2023-02-04T05:53:08.426Z,64.31
2023-02-04T05:55:35.035Z,64.29
2023-02-04T05:58:01.727Z,64.08
2023-02-04T06:00:28.332Z,64.21
2023-02-04T06:02:54.853Z,64.04
2023-02-04T06:05:23.046Z,64.08
2023-02-04T06:07:49.873Z,64.22
2023-02-04T06:10:16.672Z,63.94
2023-02-04T06:12:43.256Z,64.00
2023-02-04T06:15:10.228Z,64.06
2023-02-04T06:17:36.793Z,64.21
2023-02-04T06:20:03.479Z,64.13
2023-02-04T06:22:30.115Z,64.13
2023-02-04T06:24:56.756Z,64.24
2023-02-04T06:27:23.498Z,64.25
2023-02-04T06:29:50.976Z,64.02
2023-02-04T06:32:18.518Z,64.27
2023-02-04T06:34:45.249Z,63.92
2023-02-04T06:37:12.726Z,63.96
2023-02-04T06:39:39.467Z,64.29
2023-02-04T06:42:06.069Z,63.88
2023-02-04T06:44:32.683Z,64.28
2023-02-04T06:46:59.229Z,63.92
2023-02-04T06:49:26.253Z,64.35
2023-02-04T06:51:53.093Z,63.93
2023-02-04T06:54:19.847Z,64.78
2023-02-04T06:56:46.899Z,65.56
2023-02-04T06:59:13.715Z,66.34
2023-02-04T07:01:40.513Z,67.18
2023-02-04T07:04:07.376Z,67.49
2023-02-04T07:06:34.171Z,67.98
2023-02-04T07:09:00.959Z,68.60
2023-02-04T07:11:27.728Z,68.78
2023-02-04T07:13:54.988Z,68.69
2023-02-04T07:16:21.680Z,68.83
2023-02-04T07:18:48.465Z,69.02
2023-02-04T07:21:15.522Z,69.52
2023-02-04T07:23:42.550Z,69.60
2023-02-04T07:26:09.193Z,69.57
2023-02-04T07:28:37.007Z,69.36
2023-02-04T07:31:03.866Z,69.76
2023-02-04T07:33:30.827Z,70.26
2023-02-04T07:35:57.513Z,69.91
2023-02-04T07:38:25.144Z,70.53
2023-02-04T07:40:51.908Z,70.53
2023-02-04T07:43:18.968Z,70.27
2023-02-04T07:45:45.907Z,70.38
2023-02-04T07:48:12.693Z,70.32
2023-02-04T07:50:39.606Z,70.57
2023-02-04T07:53:06.368Z,70.64
2023-02-04T07:55:33.281Z,70.64
2023-02-04T07:58:00.032Z,70.68
2023-02-04T08:00:26.800Z,70.55
2023-02-04T08:02:53.553Z,70.23
2023-02-04T08:05:20.416Z,70.41
2023-02-04T08:07:47.155Z,70.06
2023-02-04T08:10:14.008Z,70.28
2023-02-04T08:12:40.729Z,70.29
2023-02-04T08:15:08.945Z,70.37
2023-02-04T08:17:36.256Z,69.87
2023-02-04T08:28:50.760Z,69.82
2023-02-04T08:31:17.681Z,69.79
2023-02-04T08:33:44.430Z,70.14
2023-02-04T08:36:11.277Z,69.99
2023-02-04T08:38:37.957Z,70.26
2023-02-04T08:41:04.933Z,70.47
2023-02-04T08:43:31.712Z,70.36
2023-02-04T08:45:59.454Z,70.10
2023-02-04T08:48:26.371Z,70.69
2023-02-04T08:50:53.145Z,70.37
2023-02-04T08:53:19.899Z,70.32
2023-02-04T08:55:46.700Z,70.88
2023-02-04T08:58:13.435Z,70.81
2023-02-04T09:00:40.218Z,70.94
2023-02-04T09:03:07.018Z,70.99
2023-02-04T09:05:33.973Z,70.88
2023-02-04T09:08:00.656Z,71.06
2023-02-04T09:10:27.347Z,71.68
2023-02-04T09:12:56.221Z,71.63
2023-02-04T09:15:26.807Z,71.53
2023-02-04T09:18:04.688Z,71.71
2023-02-04T09:20:31.891Z,71.74
2023-02-04T09:22:58.827Z,71.79
2023-02-04T09:25:25.680Z,71.50
2023-02-04T09:27:52.407Z,71.61
2023-02-04T09:30:19.384Z,71.50
2023-02-04T09:32:46.125Z,71.63
2023-02-04T09:35:12.921Z,71.64
2023-02-04T09:37:39.628Z,71.78
2023-02-04T09:40:06.881Z,71.90
2023-02-04T09:42:33.513Z,72.42
2023-02-04T09:45:03.124Z,71.69
2023-02-04T09:47:30.061Z,71.72
2023-02-04T09:49:56.838Z,71.87
2023-02-04T09:52:24.739Z,72.01
2023-02-04T09:54:51.935Z,71.96
2023-02-04T09:57:20.104Z,72.10
2023-02-04T09:59:47.207Z,72.15
2023-02-04T10:02:22.209Z,72.54
2023-02-04T10:04:50.913Z,72.43
2023-02-04T10:07:22.251Z,72.39
2023-02-04T10:09:50.253Z,72.74
2023-02-04T10:12:17.044Z,72.44
2023-02-04T10:14:44.439Z,72.70
2023-02-04T10:17:11.832Z,72.61
2023-02-04T10:19:38.732Z,72.48
2023-02-04T10:22:13.601Z,72.55
2023-02-04T10:24:40.485Z,72.87
2023-02-04T10:27:11.886Z,73.10
2023-02-04T10:29:40.357Z,73.20
2023-02-04T10:32:26.377Z,72.77
2023-02-04T10:34:58.578Z,72.16
2023-02-04T10:37:25.488Z,71.79
2023-02-04T10:39:52.647Z,70.90
2023-02-04T10:42:28.076Z,71.38
2023-02-04T10:44:55.149Z,71.41
2023-02-04T10:47:23.989Z,71.09
2023-02-04T10:50:02.912Z,71.17
2023-02-04T10:52:40.010Z,70.56
2023-02-04T10:55:11.481Z,70.16
2023-02-04T10:57:39.241Z,69.92
2023-02-04T11:00:18.616Z,69.77
2023-02-04T11:03:04.420Z,69.83
2023-02-04T11:05:34.683Z,69.01
2023-02-04T11:08:02.910Z,69.10
2023-02-04T11:10:34.716Z,68.92
2023-02-04T11:13:04.383Z,68.95
2023-02-04T11:15:50.566Z,68.34
2023-02-04T11:18:21.118Z,67.72
2023-02-04T11:20:49.255Z,67.59
2023-02-04T11:23:32.337Z,67.68
2023-02-04T11:26:07.571Z,67.16
2023-02-04T11:29:00.737Z,66.81
2023-02-04T11:31:27.679Z,66.63
2023-02-04T11:34:16.650Z,66.05
2023-02-04T11:37:01.822Z,65.62
2023-02-04T11:39:33.396Z,65.19
2023-02-04T11:42:00.835Z,65.00
2023-02-04T11:44:28.108Z,64.82
2023-02-04T11:46:56.112Z,64.00
2023-02-04T11:49:24.316Z,64.69
2023-02-04T11:51:51.213Z,64.31
2023-02-04T11:54:21.951Z,63.88
2023-02-04T11:56:53.032Z,63.38
2023-02-04T11:59:21.494Z,63.31
2023-02-04T12:01:48.189Z,63.29
2023-02-04T12:04:23.737Z,63.77
2023-02-04T12:06:59.094Z,63.40
2023-02-04T12:09:30.014Z,63.84
2023-02-04T12:11:57.793Z,64.57
2023-02-04T12:14:37.236Z,64.38
2023-02-04T12:17:20.324Z,64.85
2023-02-04T12:19:47.361Z,64.22
2023-02-04T12:22:15.671Z,64.02
2023-02-04T12:24:44.043Z,64.18
2023-02-04T12:27:10.845Z,64.15
2023-02-04T12:29:37.597Z,63.83
2023-02-04T12:32:04.722Z,63.71
2023-02-04T12:34:31.720Z,63.50
2023-02-04T12:36:58.664Z,63.08
2023-02-04T12:39:25.778Z,62.15
2023-02-04T12:41:52.428Z,61.11
2023-02-04T12:44:19.191Z,60.86
2023-02-04T12:46:46.054Z,61.80
2023-02-04T12:49:13.012Z,62.17
2023-02-04T12:51:39.700Z,62.02
2023-02-04T12:54:08.092Z,62.02
2023-02-04T12:56:35.221Z,61.81
2023-02-04T12:59:02.067Z,61.77
2023-02-04T13:01:28.885Z,61.48
2023-02-04T13:03:55.683Z,61.39
2023-02-04T13:06:24.923Z,59.56
2023-02-04T13:08:51.848Z,59.78
2023-02-04T13:11:18.556Z,59.54
2023-02-04T13:13:45.413Z,59.96
2023-02-04T13:16:12.794Z,59.75
2023-02-04T13:18:39.591Z,59.71
2023-02-04T13:21:06.251Z,60.04
2023-02-04T13:23:32.967Z,60.44
2023-02-04T13:25:59.603Z,60.32
2023-02-04T13:28:26.389Z,60.97
2023-02-04T13:30:53.223Z,61.29
2023-02-04T13:33:19.960Z,61.11
2023-02-04T13:35:46.695Z,60.95
2023-02-04T13:38:13.384Z,59.82
2023-02-04T13:40:40.052Z,60.46
2023-02-04T13:43:06.901Z,60.34
2023-02-04T13:45:34.052Z,60.03
2023-02-04T13:48:01.184Z,59.66
2023-02-04T13:50:27.872Z,59.93
2023-02-04T13:52:55.438Z,58.11
2023-02-04T13:55:22.234Z,58.87
2023-02-04T13:57:48.972Z,59.60
2023-02-04T14:00:16.207Z,59.11
2023-02-04T14:02:43.036Z,58.92
2023-02-04T14:05:09.830Z,58.53
2023-02-04T14:07:36.632Z,58.21
2023-02-04T14:10:03.664Z,59.14
2023-02-04T14:12:30.478Z,57.72
2023-02-04T14:14:57.177Z,58.04
2023-02-04T14:17:24.269Z,57.30
2023-02-04T14:19:51.161Z,56.07
2023-02-04T14:22:18.449Z,57.19
2023-02-04T14:24:45.103Z,57.46
2023-02-04T14:27:11.902Z,57.41
2023-02-04T14:29:38.696Z,56.74
2023-02-04T14:32:06.144Z,57.04
2023-02-04T14:34:32.890Z,56.72
2023-02-04T14:36:59.781Z,56.96
2023-02-04T14:39:26.476Z,56.35
2023-02-04T14:41:53.252Z,57.09
2023-02-04T14:44:20.995Z,57.34
2023-02-04T14:46:49.076Z,57.86
2023-02-04T14:49:16.478Z,57.30
2023-02-04T14:51:43.460Z,57.80
2023-02-04T14:54:10.352Z,57.86
2023-02-04T14:56:37.215Z,58.41
2023-02-04T14:59:04.056Z,58.65
2023-02-04T15:01:31.114Z,58.77
2023-02-04T15:03:58.374Z,58.87
2023-02-04T15:06:25.312Z,59.11
2023-02-04T15:08:52.496Z,59.12
2023-02-04T15:11:19.192Z,60.00
2023-02-04T15:13:46.090Z,60.64
2023-02-04T15:16:14.426Z,62.19
2023-02-04T15:18:41.787Z,62.79
2023-02-04T15:21:08.508Z,63.37
2023-02-04T15:23:35.383Z,63.45
2023-02-04T15:26:02.376Z,64.12
2023-02-04T15:28:31.036Z,64.61
2023-02-04T15:30:58.325Z,64.98
2023-02-04T15:33:25.274Z,65.53
2023-02-04T15:35:52.074Z,65.28
2023-02-04T15:38:18.734Z,65.50
2023-02-04T15:40:45.503Z,66.27
2023-02-04T15:43:12.188Z,66.52
2023-02-04T15:45:41.453Z,66.76
2023-02-04T15:48:08.497Z,66.80
2023-02-04T15:50:35.505Z,66.79
2023-02-04T15:53:02.386Z,67.03
2023-02-04T15:55:29.499Z,67.11
2023-02-04T15:57:56.248Z,67.33
2023-02-04T16:00:23.115Z,67.39
2023-02-04T16:02:49.816Z,67.43
2023-02-04T16:05:16.971Z,67.53
2023-02-04T16:07:43.710Z,67.72
2023-02-04T16:10:11.184Z,67.67
2023-02-04T16:12:37.915Z,67.62
2023-02-04T16:15:04.861Z,67.79
2023-02-04T16:17:31.850Z,67.80
2023-02-04T16:19:58.601Z,68.04
2023-02-04T16:22:25.316Z,68.45
2023-02-04T16:24:52.981Z,68.98
2023-02-04T16:27:20.104Z,69.15
2023-02-04T16:29:47.338Z,69.33
2023-02-04T16:32:14.776Z,69.17
2023-02-04T16:34:41.868Z,68.76
2023-02-04T16:37:08.515Z,68.90
2023-02-04T16:39:36.903Z,68.86
2023-02-04T16:42:06.396Z,69.38
2023-02-04T16:44:33.144Z,70.03
2023-02-04T16:46:59.801Z,70.00
2023-02-04T16:49:26.508Z,69.42
2023-02-04T16:51:53.126Z,69.10
2023-02-04T16:54:19.899Z,69.24
2023-02-04T16:56:46.579Z,69.38
2023-02-04T16:59:13.401Z,69.60
2023-02-04T17:01:40.113Z,69.50
2023-02-04T17:04:06.936Z,69.33
2023-02-04T17:06:34.092Z,69.34
2023-02-04T17:09:01.222Z,70.07
2023-02-04T17:11:31.746Z,69.85
2023-02-04T17:14:03.970Z,69.44
2023-02-04T17:16:31.529Z,69.38
2023-02-04T17:21:42.385Z,68.42
2023-02-04T17:24:11.292Z,68.34
2023-02-04T17:26:39.642Z,67.58
2023-02-04T17:29:11.892Z,67.79
2023-02-04T17:31:39.635Z,67.32
2023-02-04T17:34:06.567Z,67.17
2023-02-04T17:36:33.484Z,66.82
2023-02-04T17:39:00.503Z,66.76
2023-02-04T17:41:27.257Z,66.43
2023-02-04T17:43:54.008Z,66.30
2023-02-04T17:46:20.942Z,65.99
2023-02-04T17:48:47.713Z,65.70
2023-02-04T17:51:14.588Z,65.21
2023-02-04T17:53:41.478Z,65.31
2023-02-04T17:56:12.616Z,65.15
2023-02-04T17:58:39.928Z,64.27
2023-02-04T18:01:12.126Z,64.18
2023-02-04T18:03:39.442Z,64.32
2023-02-04T18:06:18.331Z,64.22
2023-02-04T18:08:45.121Z,63.64
2023-02-04T18:11:24.371Z,63.36
2023-02-04T18:13:54.685Z,63.19
2023-02-04T18:16:39.354Z,63.22
2023-02-04T18:19:21.043Z,63.31
2023-02-04T18:21:54.744Z,63.13
2023-02-04T18:24:30.537Z,62.59
2023-02-04T18:27:00.562Z,62.84
2023-02-04T18:29:27.418Z,62.23
2023-02-04T18:31:57.409Z,62.21
2023-02-04T18:34:36.256Z,61.82
2023-02-04T18:37:28.163Z,61.76
2023-02-04T18:39:57.727Z,61.82
2023-02-04T18:42:26.539Z,61.71
2023-02-04T18:44:55.119Z,61.20
2023-02-04T18:47:31.802Z,61.15
2023-02-04T18:50:16.200Z,61.01
2023-02-04T18:52:43.706Z,60.98
2023-02-04T18:55:34.898Z,61.00
2023-02-04T18:58:17.397Z,61.07
2023-02-04T19:00:48.696Z,60.86
2023-02-04T19:03:27.059Z,60.53
2023-02-04T19:05:55.862Z,60.19
2023-02-04T19:08:25.268Z,60.43
2023-02-04T19:10:54.056Z,60.30
2023-02-04T19:13:31.180Z,59.94
2023-02-04T19:16:02.963Z,59.72
2023-02-04T19:18:32.849Z,60.01
2023-02-04T19:21:17.960Z,60.03
2023-02-04T19:23:44.832Z,59.67
2023-02-04T19:26:29.420Z,59.74
2023-02-04T19:28:56.553Z,59.19
2023-02-04T19:31:27.080Z,59.18
2023-02-04T19:33:55.430Z,59.07
2023-02-04T19:36:36.960Z,58.85
2023-02-04T19:39:14.185Z,58.83
2023-02-04T19:41:43.532Z,59.14
2023-02-04T19:44:13.747Z,59.02
2023-02-04T19:46:42.279Z,59.18
2023-02-04T19:49:29.404Z,58.64
2023-02-04T19:51:57.874Z,59.07
2023-02-04T19:54:38.559Z,58.55
2023-02-04T19:57:25.453Z,58.39
2023-02-04T19:59:56.675Z,58.13
2023-02-04T20:02:35.765Z,58.31
2023-02-04T20:05:14.049Z,58.08
2023-02-04T20:07:40.804Z,57.99
2023-02-04T20:10:07.554Z,58.13
2023-02-04T20:12:34.428Z,58.39
2023-02-04T20:15:03.676Z,57.86
2023-02-04T20:17:36.835Z,57.93
2023-02-04T20:20:18.598Z,57.92
2023-02-04T20:22:50.860Z,58.19
2023-02-04T20:25:23.528Z,57.73
2023-02-04T20:28:06.203Z,58.18
2023-02-04T20:30:34.800Z,58.23
2023-02-04T20:33:28.603Z,58.48
2023-02-04T20:36:22.380Z,58.21
2023-02-04T20:38:50.130Z,58.45
2023-02-04T20:41:20.775Z,58.79
2023-02-04T20:43:51.749Z,58.49
2023-02-04T20:46:25.221Z,58.76
2023-02-04T20:48:53.267Z,58.67
2023-02-04T20:51:24.453Z,58.44
2023-02-04T20:53:52.788Z,59.06
2023-02-04T20:56:25.678Z,58.71
2023-02-04T20:58:58.201Z,58.65
2023-02-04T21:01:36.531Z,58.89
2023-02-04T21:04:31.132Z,58.98
2023-02-04T21:07:01.268Z,59.12
2023-02-04T21:09:30.466Z,59.11
2023-02-04T21:11:57.876Z,59.13
2023-02-04T21:14:26.183Z,58.86
2023-02-04T21:16:54.676Z,59.20
2023-02-04T21:19:22.680Z,59.01
2023-02-04T21:21:49.505Z,59.45
2023-02-04T21:24:16.369Z,59.48
2023-02-04T21:26:43.117Z,59.11
2023-02-04T21:29:11.321Z,59.33
2023-02-04T21:31:38.590Z,59.23
2023-02-04T21:34:06.030Z,59.06
2023-02-04T21:36:32.852Z,59.44
2023-02-04T21:38:59.727Z,59.55
2023-02-04T21:41:26.537Z,59.59
2023-02-04T21:43:53.875Z,59.48
2023-02-04T21:46:20.855Z,59.47
2023-02-04T21:48:47.784Z,59.33
2023-02-04T21:51:14.881Z,59.73
2023-02-04T21:53:41.966Z,59.19
2023-02-04T21:56:09.482Z,59.72
2023-02-04T21:58:36.503Z,59.47
2023-02-04T22:01:03.249Z,59.83
2023-02-04T22:03:29.991Z,60.03
2023-02-04T22:05:56.774Z,59.84
2023-02-04T22:08:24.023Z,59.75
2023-02-04T22:10:50.862Z,59.82
2023-02-04T22:13:17.559Z,60.06
2023-02-04T22:15:44.368Z,59.94
2023-02-04T22:18:12.098Z,60.10
2023-02-04T22:20:39.625Z,59.83
2023-02-04T22:23:06.613Z,59.51
2023-02-04T22:25:33.738Z,59.72
2023-02-04T22:28:00.632Z,59.66
2023-02-04T22:30:27.533Z,59.64
2023-02-04T22:32:55.866Z,59.34
2023-02-04T22:35:23.223Z,59.49
2023-02-04T22:37:49.970Z,59.26
2023-02-04T22:40:17.018Z,59.16
2023-02-04T22:42:43.695Z,59.20
2023-02-04T22:45:10.537Z,59.23
2023-02-04T22:47:37.284Z,59.21
2023-02-04T22:50:04.108Z,59.21
2023-02-04T22:52:30.936Z,59.16
2023-02-04T22:54:57.734Z,59.54
2023-02-04T22:57:24.421Z,59.18
2023-02-04T22:59:51.166Z,59.60
2023-02-04T23:02:17.945Z,59.21
2023-02-04T23:04:44.873Z,59.52
2023-02-04T23:07:12.444Z,59.37
2023-02-04T23:09:39.191Z,59.38
2023-02-04T23:12:15.058Z,59.40
2023-02-04T23:14:43.992Z,58.85
2023-02-04T23:17:11.144Z,59.43
2023-02-04T23:19:38.109Z,59.35
2023-02-04T23:22:05.498Z,59.34
2023-02-04T23:24:32.903Z,58.95
2023-02-04T23:27:00.277Z,58.89
2023-02-04T23:29:28.575Z,58.82
2023-02-04T23:31:55.954Z,58.91
2023-02-04T23:34:22.711Z,59.07
2023-02-04T23:36:51.213Z,59.07
2023-02-04T23:39:19.126Z,59.18
2023-02-04T23:41:45.931Z,59.39
2023-02-04T23:44:12.845Z,59.70
2023-02-04T23:46:39.680Z,59.48
2023-02-04T23:49:06.759Z,59.50
2023-02-04T23:51:33.605Z,59.44
2023-02-04T23:54:00.592Z,59.60
2023-02-04T23:56:27.500Z,60.00
2023-02-04T23:58:55.409Z,59.92
